Nikitis — SVA7358 — position and weather

sailwx.info

Track history (hours):
 
Tides and Currents Weather Stations Pressure Air Temp Water Temp Dewpoint Dewpoint Depression Visibility Wind Speed Wind Dir Waves Ship Positions

Nikitis

Last reported at 2017-Sep-11 06:01 UTC. Time now 2017-Sep-22 02:53 UTC.
Position N 40°47' E 024°43'.
Warning: this ship's position is 10 days out of date.

Length 39 m.

Type: Passenger vessel. MMSI: 239992800.

Date/timePositionNaut miles runAvg speedWind from/ knotsBaromVisibWave heightAir tempDewpointWater temp
2017-Sep-11 06:01N 40°47' E 024°43'0 0.0
2017-Sep-11 06:00N 40°47' E 024°43'0 0.0
2017-Sep-11 05:30N 40°47' E 024°43'0 0.0
2017-Sep-11 05:00N 40°47' E 024°43'4 7.1
2017-Sep-11 04:30N 40°49' E 024°39'4 8.1
2017-Sep-11 04:00N 40°47' E 024°34'2 0.1
2017-Sep-10 17:38N 40°46' E 024°35'0 0.0
2017-Sep-10 17:30N 40°46' E 024°35'4 8.5
2017-Sep-10 17:00N 40°49' E 024°31'5 9.5
2017-Sep-10 16:30N 40°53' E 024°27'4 7.6
2017-Sep-10 16:00N 40°56' E 024°25'3 6.7
2017-Sep-10 15:30N 40°53' E 024°27'510.0
2017-Sep-10 15:00N 40°49' E 024°31'4 4.0
2017-Sep-10 14:00N 40°46' E 024°34'4 7.1
2017-Sep-10 13:30N 40°49' E 024°31'5 9.4
2017-Sep-10 13:00N 40°52' E 024°27'4 8.1
2017-Sep-10 12:30N 40°56' E 024°25'0 0.1
2017-Sep-10 12:00N 40°56' E 024°25'3 6.5
2017-Sep-10 11:30N 40°53' E 024°27'5 9.8
2017-Sep-10 11:00N 40°50' E 024°31'5 9.4
2017-Sep-10 10:30N 40°46' E 024°35'0 0.1
2017-Sep-10 10:00N 40°46' E 024°35'4 8.2
2017-Sep-10 09:31N 40°49' E 024°31'5 9.5
2017-Sep-10 09:00N 40°52' E 024°27'4 8.1
2017-Sep-10 08:30N 40°56' E 024°25'0 0.1
2017-Sep-10 08:00N 40°56' E 024°25'3 6.9
2017-Sep-10 07:30N 40°53' E 024°27'5 9.8
2017-Sep-10 07:00N 40°49' E 024°31'5 9.1
2017-Sep-10 06:30N 40°46' E 024°35'0 0.0
2017-Sep-09 15:40N 40°46' E 024°35'0 0.0
2017-Sep-09 15:30N 40°46' E 024°35'4 8.7
2017-Sep-09 15:00N 40°49' E 024°31'5 9.4
2017-Sep-09 14:30N 40°53' E 024°27'4 7.7
2017-Sep-09 14:00N 40°56' E 024°25'3 6.0
2017-Sep-09 13:30N 40°53' E 024°27'510.2
2017-Sep-09 13:00N 40°49' E 024°31'5 9.5
2017-Sep-09 12:30N 40°46' E 024°35'0 0.9
2017-Sep-09 12:00N 40°46' E 024°34'4 7.9
2017-Sep-09 11:30N 40°49' E 024°31'5 9.1
2017-Sep-09 11:00N 40°53' E 024°27'4 7.9
2017-Sep-09 10:30N 40°56' E 024°25'0 0.0
2017-Sep-09 10:00N 40°56' E 024°25'0 0.0
2017-Sep-09 09:30N 40°56' E 024°25'1 1.9
2017-Sep-09 09:00N 40°55' E 024°25'510.0
2017-Sep-09 08:30N 40°51' E 024°29'510.0
2017-Sep-09 08:00N 40°47' E 024°33'2 4.2
2017-Sep-09 07:30N 40°46' E 024°35'4 8.5
2017-Sep-09 07:00N 40°49' E 024°31'5 9.4
2017-Sep-09 06:30N 40°53' E 024°27'4 7.8
2017-Sep-09 06:00N 40°56' E 024°25'0 0.1
2017-Sep-09 05:30N 40°56' E 024°25'3 6.5
2017-Sep-09 05:00N 40°53' E 024°27'5 9.9
2017-Sep-09 04:30N 40°49' E 024°31'5 9.2
2017-Sep-09 04:00N 40°46' E 024°35'0 0.0
2017-Sep-08 15:39N 40°46' E 024°35'0 0.0
2017-Sep-08 15:30N 40°46' E 024°35'4 8.5
2017-Sep-08 15:00N 40°49' E 024°32'5 9.7
2017-Sep-08 14:30N 40°53' E 024°27'4 7.9
2017-Sep-08 14:00N 40°56' E 024°25'3 5.6
2017-Sep-08 13:30N 40°54' E 024°26'510.1
2017-Sep-08 13:00N 40°50' E 024°31'5 9.9
2017-Sep-08 12:30N 40°46' E 024°35'1 1.1
2017-Sep-08 12:00N 40°46' E 024°34'4 7.0
2017-Sep-08 11:30N 40°49' E 024°31'5 9.4
2017-Sep-08 11:00N 40°52' E 024°27'4 8.2
2017-Sep-08 10:30N 40°56' E 024°25'0 0.1
2017-Sep-08 10:00N 40°56' E 024°25'0 0.0
2017-Sep-08 09:30N 40°56' E 024°25'1 2.2
2017-Sep-08 09:00N 40°55' E 024°25'5 9.8
2017-Sep-08 08:30N 40°51' E 024°29'5 9.8
2017-Sep-08 08:00N 40°47' E 024°33'2 4.2
2017-Sep-08 07:30N 40°46' E 024°35'4 8.8
2017-Sep-08 07:00N 40°49' E 024°31'5 9.5
2017-Sep-08 06:30N 40°53' E 024°27'4 7.5
2017-Sep-08 06:00N 40°56' E 024°25'0 0.0
2017-Sep-08 05:30N 40°56' E 024°25'4 7.0
2017-Sep-08 05:00N 40°53' E 024°27'5 9.9
2017-Sep-08 04:30N 40°49' E 024°31'4 8.9
2017-Sep-08 04:00N 40°46' E 024°35'0 0.0
2017-Sep-07 16:45N 40°46' E 024°35'0 0.0
2017-Sep-07 16:30N 40°46' E 024°35'0 0.0
2017-Sep-07 16:00N 40°46' E 024°35'0 0.0
2017-Sep-07 15:30N 40°46' E 024°35'4 8.2
2017-Sep-07 15:00N 40°49' E 024°32'5 9.6
2017-Sep-07 14:30N 40°53' E 024°28'4 8.0
2017-Sep-07 14:00N 40°56' E 024°25'3 5.9
2017-Sep-07 13:30N 40°53' E 024°27'510.0
2017-Sep-07 13:00N 40°50' E 024°31'5 9.8
2017-Sep-07 12:30N 40°46' E 024°35'1 1.4
2017-Sep-07 12:00N 40°46' E 024°34'4 7.0
2017-Sep-07 11:30N 40°49' E 024°31'5 9.4
2017-Sep-07 11:00N 40°53' E 024°27'4 7.7
2017-Sep-07 10:30N 40°56' E 024°25'0 0.0
2017-Sep-07 10:00N 40°56' E 024°25'0 0.0
2017-Sep-07 09:30N 40°56' E 024°25'1 2.3
2017-Sep-07 09:00N 40°55' E 024°25'5 9.9
2017-Sep-07 08:30N 40°51' E 024°29'5 9.7
2017-Sep-07 08:00N 40°47' E 024°33'2 4.1
2017-Sep-07 07:30N 40°46' E 024°35'4 8.4
2017-Sep-07 07:00N 40°49' E 024°32'5 9.6
2017-Sep-07 06:30N 40°53' E 024°27'4 7.7
2017-Sep-07 06:00N 40°56' E 024°25'0 0.0
2017-Sep-07 05:30N 40°56' E 024°25'3 6.9
2017-Sep-07 05:00N 40°53' E 024°27'5 9.8
2017-Sep-07 04:30N 40°49' E 024°31'5 9.0
2017-Sep-07 04:00N 40°46' E 024°35'0 0.0
2017-Sep-06 15:44N 40°46' E 024°35'0 0.0
2017-Sep-06 15:30N 40°46' E 024°35'4 8.7
2017-Sep-06 15:00N 40°49' E 024°31'5 9.4
2017-Sep-06 14:30N 40°53' E 024°27'4 7.7
2017-Sep-06 14:00N 40°56' E 024°25'3 6.3
2017-Sep-06 13:30N 40°53' E 024°27'5 9.9
2017-Sep-06 13:00N 40°49' E 024°31'5 9.5
2017-Sep-06 12:30N 40°46' E 024°35'1 1.0
2017-Sep-06 12:00N 40°46' E 024°34'4 7.0
2017-Sep-06 11:30N 40°49' E 024°32'5 9.7
2017-Sep-06 11:00N 40°53' E 024°28'4 8.1
2017-Sep-06 10:30N 40°56' E 024°25'0 0.1
2017-Sep-06 10:00N 40°56' E 024°25'0 0.0
2017-Sep-06 09:30N 40°56' E 024°25'1 2.8
2017-Sep-06 09:00N 40°55' E 024°25'5 9.5
2017-Sep-06 08:30N 40°51' E 024°29'5 9.3
2017-Sep-06 08:00N 40°47' E 024°33'2 4.5
2017-Sep-06 07:30N 40°46' E 024°35'4 8.2
2017-Sep-06 07:00N 40°49' E 024°31'510.2
2017-Sep-06 06:30N 40°53' E 024°27'4 7.3
2017-Sep-06 06:00N 40°56' E 024°25'0 0.0
2017-Sep-06 05:30N 40°56' E 024°25'4 7.5
2017-Sep-06 05:00N 40°53' E 024°27'5 9.4
2017-Sep-06 04:30N 40°49' E 024°31'4 8.8
2017-Sep-06 04:00N 40°46' E 024°35'0 0.0
2017-Sep-05 15:43N 40°46' E 024°35'0 0.0
2017-Sep-05 15:30N 40°46' E 024°35'4 7.8
2017-Sep-05 15:00N 40°49' E 024°32'510.3
2017-Sep-05 14:30N 40°53' E 024°27'4 7.7
2017-Sep-05 14:00N 40°56' E 024°25'3 6.4
2017-Sep-05 13:30N 40°53' E 024°27'5 9.6
2017-Sep-05 13:00N 40°50' E 024°31'5 9.7
2017-Sep-05 12:30N 40°46' E 024°35'0 0.6
2017-Sep-05 12:00N 40°46' E 024°34'4 7.1
2017-Sep-05 11:30N 40°49' E 024°32'5 9.8
2017-Sep-05 11:00N 40°52' E 024°27'4 8.3
2017-Sep-05 10:30N 40°56' E 024°25'0 0.2
2017-Sep-05 10:00N 40°56' E 024°25'0 0.0
2017-Sep-05 09:30N 40°56' E 024°25'1 2.5
2017-Sep-05 09:00N 40°55' E 024°25'5 9.7
2017-Sep-05 08:30N 40°52' E 024°30'5 9.8
2017-Sep-05 08:00N 40°48' E 024°34'2 4.6
2017-Sep-05 07:30N 40°46' E 024°35'4 7.8
2017-Sep-05 07:00N 40°49' E 024°31'5 9.6
2017-Sep-05 06:30N 40°52' E 024°28'4 8.4
2017-Sep-05 06:00N 40°56' E 024°25'0 0.2
2017-Sep-05 05:30N 40°56' E 024°25'3 6.8
2017-Sep-05 05:00N 40°53' E 024°27'5 9.6
2017-Sep-05 04:30N 40°49' E 024°31'5 9.1
2017-Sep-05 04:00N 40°46' E 024°35'0 0.0
2017-Sep-04 15:41N 40°46' E 024°35'0 0.0
2017-Sep-04 15:30N 40°46' E 024°35'4 8.3
2017-Sep-04 15:00N 40°49' E 024°31'5 9.9
2017-Sep-04 14:27N 40°53' E 024°27'3 7.5
2017-Sep-04 14:00N 40°56' E 024°25'3 6.2
2017-Sep-04 13:30N 40°53' E 024°27'5 9.9
2017-Sep-04 13:00N 40°49' E 024°31'5 9.6
2017-Sep-04 12:30N 40°46' E 024°35'0 0.8
2017-Sep-04 12:00N 40°46' E 024°34'4 7.7
2017-Sep-04 11:30N 40°49' E 024°32'5 9.4
2017-Sep-04 11:00N 40°53' E 024°27'4 7.8
2017-Sep-04 10:30N 40°56' E 024°25'0 0.1
2017-Sep-04 10:00N 40°56' E 024°25'0 0.0
2017-Sep-04 09:30N 40°56' E 024°25'1 2.7
2017-Sep-04 09:01N 40°55' E 024°25'5 9.9
2017-Sep-04 08:31N 40°51' E 024°29'5 9.7
2017-Sep-04 08:00N 40°47' E 024°33'2 3.7
2017-Sep-04 07:31N 40°46' E 024°35'4 8.8
2017-Sep-04 07:01N 40°49' E 024°31'5 9.8
2017-Sep-04 06:31N 40°53' E 024°27'4 7.3
2017-Sep-04 06:01N 40°56' E 024°25'0 0.7
2017-Sep-04 05:28N 40°56' E 024°24'4 9.1
2017-Sep-04 05:00N 40°52' E 024°27'5 9.7
2017-Sep-04 04:31N 40°49' E 024°31'4 7.9
2017-Sep-04 04:01N 40°46' E 024°35'0 0.0
2017-Sep-03 19:46N 40°46' E 024°35'0 0.0
2017-Sep-03 19:30N 40°46' E 024°35'0 0.0
2017-Sep-03 19:00N 40°46' E 024°35'0 0.0
2017-Sep-03 18:30N 40°46' E 024°35'0 0.0
2017-Sep-03 18:00N 40°46' E 024°35'0 0.0
2017-Sep-03 17:30N 40°46' E 024°35'4 8.2
2017-Sep-03 17:00N 40°49' E 024°32'5 9.7
2017-Sep-03 16:30N 40°53' E 024°27'4 7.9
2017-Sep-03 16:00N 40°56' E 024°25'0 0.2
2017-Sep-03 15:30N 40°56' E 024°25'0 0.0
2017-Sep-03 15:00N 40°56' E 024°25'0 0.0
2017-Sep-03 14:00N 40°56' E 024°25'0 0.2
2017-Sep-03 13:30N 40°56' E 024°25'0 0.0
2017-Sep-02 14:15N 40°56' E 024°25'  
Track history (hours):
 
Tides and Currents Weather Stations Pressure Air Temp Water Temp Dewpoint Dewpoint Depression Visibility Wind Speed Wind Dir Waves Ship Positions

Nikitis

Last reported at 2017-Sep-11 06:01 UTC. Time now 2017-Sep-22 02:53 UTC.
Position N 40°47' E 024°43'.
Warning: this ship's position is 10 days out of date.

Length 39 m.

Type: Passenger vessel. MMSI: 239992800.

Date/timePositionNaut miles runAvg speedWind from/ knotsBaromVisibWave heightAir tempDewpointWater temp
2017-Sep-11 06:01N 40°47' E 024°43'0 0.0
2017-Sep-11 06:00N 40°47' E 024°43'0 0.0
2017-Sep-11 05:30N 40°47' E 024°43'0 0.0
2017-Sep-11 05:00N 40°47' E 024°43'4 7.1
2017-Sep-11 04:30N 40°49' E 024°39'4 8.1
2017-Sep-11 04:00N 40°47' E 024°34'2 0.1
2017-Sep-10 17:38N 40°46' E 024°35'0 0.0
2017-Sep-10 17:30N 40°46' E 024°35'4 8.5
2017-Sep-10 17:00N 40°49' E 024°31'5 9.5
2017-Sep-10 16:30N 40°53' E 024°27'4 7.6
2017-Sep-10 16:00N 40°56' E 024°25'3 6.7
2017-Sep-10 15:30N 40°53' E 024°27'510.0
2017-Sep-10 15:00N 40°49' E 024°31'4 4.0
2017-Sep-10 14:00N 40°46' E 024°34'4 7.1
2017-Sep-10 13:30N 40°49' E 024°31'5 9.4
2017-Sep-10 13:00N 40°52' E 024°27'4 8.1
2017-Sep-10 12:30N 40°56' E 024°25'0 0.1
2017-Sep-10 12:00N 40°56' E 024°25'3 6.5
2017-Sep-10 11:30N 40°53' E 024°27'5 9.8
2017-Sep-10 11:00N 40°50' E 024°31'5 9.4
2017-Sep-10 10:30N 40°46' E 024°35'0 0.1
2017-Sep-10 10:00N 40°46' E 024°35'4 8.2
2017-Sep-10 09:31N 40°49' E 024°31'5 9.5
2017-Sep-10 09:00N 40°52' E 024°27'4 8.1
2017-Sep-10 08:30N 40°56' E 024°25'0 0.1
2017-Sep-10 08:00N 40°56' E 024°25'3 6.9
2017-Sep-10 07:30N 40°53' E 024°27'5 9.8
2017-Sep-10 07:00N 40°49' E 024°31'5 9.1
2017-Sep-10 06:30N 40°46' E 024°35'0 0.0
2017-Sep-09 15:40N 40°46' E 024°35'0 0.0
2017-Sep-09 15:30N 40°46' E 024°35'4 8.7
2017-Sep-09 15:00N 40°49' E 024°31'5 9.4
2017-Sep-09 14:30N 40°53' E 024°27'4 7.7
2017-Sep-09 14:00N 40°56' E 024°25'3 6.0
2017-Sep-09 13:30N 40°53' E 024°27'510.2
2017-Sep-09 13:00N 40°49' E 024°31'5 9.5
2017-Sep-09 12:30N 40°46' E 024°35'0 0.9
2017-Sep-09 12:00N 40°46' E 024°34'4 7.9
2017-Sep-09 11:30N 40°49' E 024°31'5 9.1
2017-Sep-09 11:00N 40°53' E 024°27'4 7.9
2017-Sep-09 10:30N 40°56' E 024°25'0 0.0
2017-Sep-09 10:00N 40°56' E 024°25'0 0.0
2017-Sep-09 09:30N 40°56' E 024°25'1 1.9
2017-Sep-09 09:00N 40°55' E 024°25'510.0
2017-Sep-09 08:30N 40°51' E 024°29'510.0
2017-Sep-09 08:00N 40°47' E 024°33'2 4.2
2017-Sep-09 07:30N 40°46' E 024°35'4 8.5
2017-Sep-09 07:00N 40°49' E 024°31'5 9.4
2017-Sep-09 06:30N 40°53' E 024°27'4 7.8
2017-Sep-09 06:00N 40°56' E 024°25'0 0.1
2017-Sep-09 05:30N 40°56' E 024°25'3 6.5
2017-Sep-09 05:00N 40°53' E 024°27'5 9.9
2017-Sep-09 04:30N 40°49' E 024°31'5 9.2
2017-Sep-09 04:00N 40°46' E 024°35'0 0.0
2017-Sep-08 15:39N 40°46' E 024°35'0 0.0
2017-Sep-08 15:30N 40°46' E 024°35'4 8.5
2017-Sep-08 15:00N 40°49' E 024°32'5 9.7
2017-Sep-08 14:30N 40°53' E 024°27'4 7.9
2017-Sep-08 14:00N 40°56' E 024°25'3 5.6
2017-Sep-08 13:30N 40°54' E 024°26'510.1
2017-Sep-08 13:00N 40°50' E 024°31'5 9.9
2017-Sep-08 12:30N 40°46' E 024°35'1 1.1
2017-Sep-08 12:00N 40°46' E 024°34'4 7.0
2017-Sep-08 11:30N 40°49' E 024°31'5 9.4
2017-Sep-08 11:00N 40°52' E 024°27'4 8.2
2017-Sep-08 10:30N 40°56' E 024°25'0 0.1
2017-Sep-08 10:00N 40°56' E 024°25'0 0.0
2017-Sep-08 09:30N 40°56' E 024°25'1 2.2
2017-Sep-08 09:00N 40°55' E 024°25'5 9.8
2017-Sep-08 08:30N 40°51' E 024°29'5 9.8
2017-Sep-08 08:00N 40°47' E 024°33'2 4.2
2017-Sep-08 07:30N 40°46' E 024°35'4 8.8
2017-Sep-08 07:00N 40°49' E 024°31'5 9.5
2017-Sep-08 06:30N 40°53' E 024°27'4 7.5
2017-Sep-08 06:00N 40°56' E 024°25'0 0.0
2017-Sep-08 05:30N 40°56' E 024°25'4 7.0
2017-Sep-08 05:00N 40°53' E 024°27'5 9.9
2017-Sep-08 04:30N 40°49' E 024°31'4 8.9
2017-Sep-08 04:00N 40°46' E 024°35'0 0.0
2017-Sep-07 16:45N 40°46' E 024°35'0 0.0
2017-Sep-07 16:30N 40°46' E 024°35'0 0.0
2017-Sep-07 16:00N 40°46' E 024°35'0 0.0
2017-Sep-07 15:30N 40°46' E 024°35'4 8.2
2017-Sep-07 15:00N 40°49' E 024°32'5 9.6
2017-Sep-07 14:30N 40°53' E 024°28'4 8.0
2017-Sep-07 14:00N 40°56' E 024°25'3 5.9
2017-Sep-07 13:30N 40°53' E 024°27'510.0
2017-Sep-07 13:00N 40°50' E 024°31'5 9.8
2017-Sep-07 12:30N 40°46' E 024°35'1 1.4
2017-Sep-07 12:00N 40°46' E 024°34'4 7.0
2017-Sep-07 11:30N 40°49' E 024°31'5 9.4
2017-Sep-07 11:00N 40°53' E 024°27'4 7.7
2017-Sep-07 10:30N 40°56' E 024°25'0 0.0
2017-Sep-07 10:00N 40°56' E 024°25'0 0.0
2017-Sep-07 09:30N 40°56' E 024°25'1 2.3
2017-Sep-07 09:00N 40°55' E 024°25'5 9.9
2017-Sep-07 08:30N 40°51' E 024°29'5 9.7
2017-Sep-07 08:00N 40°47' E 024°33'2 4.1
2017-Sep-07 07:30N 40°46' E 024°35'4 8.4
2017-Sep-07 07:00N 40°49' E 024°32'5 9.6
2017-Sep-07 06:30N 40°53' E 024°27'4 7.7
2017-Sep-07 06:00N 40°56' E 024°25'0 0.0
2017-Sep-07 05:30N 40°56' E 024°25'3 6.9
2017-Sep-07 05:00N 40°53' E 024°27'5 9.8
2017-Sep-07 04:30N 40°49' E 024°31'5 9.0
2017-Sep-07 04:00N 40°46' E 024°35'0 0.0
2017-Sep-06 15:44N 40°46' E 024°35'0 0.0
2017-Sep-06 15:30N 40°46' E 024°35'4 8.7
2017-Sep-06 15:00N 40°49' E 024°31'5 9.4
2017-Sep-06 14:30N 40°53' E 024°27'4 7.7
2017-Sep-06 14:00N 40°56' E 024°25'3 6.3
2017-Sep-06 13:30N 40°53' E 024°27'5 9.9
2017-Sep-06 13:00N 40°49' E 024°31'5 9.5
2017-Sep-06 12:30N 40°46' E 024°35'1 1.0
2017-Sep-06 12:00N 40°46' E 024°34'4 7.0
2017-Sep-06 11:30N 40°49' E 024°32'5 9.7
2017-Sep-06 11:00N 40°53' E 024°28'4 8.1
2017-Sep-06 10:30N 40°56' E 024°25'0 0.1
2017-Sep-06 10:00N 40°56' E 024°25'0 0.0
2017-Sep-06 09:30N 40°56' E 024°25'1 2.8
2017-Sep-06 09:00N 40°55' E 024°25'5 9.5
2017-Sep-06 08:30N 40°51' E 024°29'5 9.3
2017-Sep-06 08:00N 40°47' E 024°33'2 4.5
2017-Sep-06 07:30N 40°46' E 024°35'4 8.2
2017-Sep-06 07:00N 40°49' E 024°31'510.2
2017-Sep-06 06:30N 40°53' E 024°27'4 7.3
2017-Sep-06 06:00N 40°56' E 024°25'0 0.0
2017-Sep-06 05:30N 40°56' E 024°25'4 7.5
2017-Sep-06 05:00N 40°53' E 024°27'5 9.4
2017-Sep-06 04:30N 40°49' E 024°31'4 8.8
2017-Sep-06 04:00N 40°46' E 024°35'0 0.0
2017-Sep-05 15:43N 40°46' E 024°35'0 0.0
2017-Sep-05 15:30N 40°46' E 024°35'4 7.8
2017-Sep-05 15:00N 40°49' E 024°32'510.3
2017-Sep-05 14:30N 40°53' E 024°27'4 7.7
2017-Sep-05 14:00N 40°56' E 024°25'3 6.4
2017-Sep-05 13:30N 40°53' E 024°27'5 9.6
2017-Sep-05 13:00N 40°50' E 024°31'5 9.7
2017-Sep-05 12:30N 40°46' E 024°35'0 0.6
2017-Sep-05 12:00N 40°46' E 024°34'4 7.1
2017-Sep-05 11:30N 40°49' E 024°32'5 9.8
2017-Sep-05 11:00N 40°52' E 024°27'4 8.3
2017-Sep-05 10:30N 40°56' E 024°25'0 0.2
2017-Sep-05 10:00N 40°56' E 024°25'0 0.0
2017-Sep-05 09:30N 40°56' E 024°25'1 2.5
2017-Sep-05 09:00N 40°55' E 024°25'5 9.7
2017-Sep-05 08:30N 40°52' E 024°30'5 9.8
2017-Sep-05 08:00N 40°48' E 024°34'2 4.6
2017-Sep-05 07:30N 40°46' E 024°35'4 7.8
2017-Sep-05 07:00N 40°49' E 024°31'5 9.6
2017-Sep-05 06:30N 40°52' E 024°28'4 8.4
2017-Sep-05 06:00N 40°56' E 024°25'0 0.2
2017-Sep-05 05:30N 40°56' E 024°25'3 6.8
2017-Sep-05 05:00N 40°53' E 024°27'5 9.6
2017-Sep-05 04:30N 40°49' E 024°31'5 9.1
2017-Sep-05 04:00N 40°46' E 024°35'0 0.0
2017-Sep-04 15:41N 40°46' E 024°35'0 0.0
2017-Sep-04 15:30N 40°46' E 024°35'4 8.3
2017-Sep-04 15:00N 40°49' E 024°31'5 9.9
2017-Sep-04 14:27N 40°53' E 024°27'3 7.5
2017-Sep-04 14:00N 40°56' E 024°25'3 6.2
2017-Sep-04 13:30N 40°53' E 024°27'5 9.9
2017-Sep-04 13:00N 40°49' E 024°31'5 9.6
2017-Sep-04 12:30N 40°46' E 024°35'0 0.8
2017-Sep-04 12:00N 40°46' E 024°34'4 7.7
2017-Sep-04 11:30N 40°49' E 024°32'5 9.4
2017-Sep-04 11:00N 40°53' E 024°27'4 7.8
2017-Sep-04 10:30N 40°56' E 024°25'0 0.1
2017-Sep-04 10:00N 40°56' E 024°25'0 0.0
2017-Sep-04 09:30N 40°56' E 024°25'1 2.7
2017-Sep-04 09:01N 40°55' E 024°25'5 9.9
2017-Sep-04 08:31N 40°51' E 024°29'5 9.7
2017-Sep-04 08:00N 40°47' E 024°33'2 3.7
2017-Sep-04 07:31N 40°46' E 024°35'4 8.8
2017-Sep-04 07:01N 40°49' E 024°31'5 9.8
2017-Sep-04 06:31N 40°53' E 024°27'4 7.3
2017-Sep-04 06:01N 40°56' E 024°25'0 0.7
2017-Sep-04 05:28N 40°56' E 024°24'4 9.1
2017-Sep-04 05:00N 40°52' E 024°27'5 9.7
2017-Sep-04 04:31N 40°49' E 024°31'4 7.9
2017-Sep-04 04:01N 40°46' E 024°35'0 0.0
2017-Sep-03 19:46N 40°46' E 024°35'0 0.0
2017-Sep-03 19:30N 40°46' E 024°35'0 0.0
2017-Sep-03 19:00N 40°46' E 024°35'0 0.0
2017-Sep-03 18:30N 40°46' E 024°35'0 0.0
2017-Sep-03 18:00N 40°46' E 024°35'0 0.0
2017-Sep-03 17:30N 40°46' E 024°35'4 8.2
2017-Sep-03 17:00N 40°49' E 024°32'5 9.7
2017-Sep-03 16:30N 40°53' E 024°27'4 7.9
2017-Sep-03 16:00N 40°56' E 024°25'0 0.2
2017-Sep-03 15:30N 40°56' E 024°25'0 0.0
2017-Sep-03 15:00N 40°56' E 024°25'0 0.0
2017-Sep-03 14:00N 40°56' E 024°25'0 0.2
2017-Sep-03 13:30N 40°56' E 024°25'0 0.0
2017-Sep-02 14:15N 40°56' E 024°25'  

Dump ship's entire track history